createdAt,value
2024-03-01T00:02:33.551Z,9.68
2024-03-01T00:05:36.593Z,9.60
2024-03-01T00:08:39.730Z,9.63
2024-03-01T00:11:42.831Z,9.68
2024-03-01T00:14:46.088Z,9.61
2024-03-01T00:17:49.199Z,9.53
2024-03-01T00:20:52.242Z,9.56
2024-03-01T00:23:55.337Z,9.60
2024-03-01T00:26:58.642Z,9.58
2024-03-01T00:30:01.864Z,9.65
2024-03-01T00:33:05.404Z,9.63
2024-03-01T00:36:09.369Z,9.67
2024-03-01T00:39:13.126Z,9.74
2024-03-01T00:42:16.345Z,9.75
2024-03-01T00:45:19.417Z,9.69
2024-03-01T00:48:22.813Z,9.75
2024-03-01T00:51:25.902Z,9.69
2024-03-01T00:54:28.736Z,9.64
2024-03-01T00:57:32.444Z,9.72
2024-03-01T01:00:36.247Z,9.67
2024-03-01T01:03:39.931Z,9.58
2024-03-01T01:06:43.024Z,9.54
2024-03-01T01:09:45.755Z,9.55
2024-03-01T01:12:48.803Z,9.58
2024-03-01T01:15:51.884Z,9.61
2024-03-01T01:18:55.205Z,9.69
2024-03-01T01:21:58.283Z,9.67
2024-03-01T01:25:01.917Z,9.67
2024-03-01T01:28:05.279Z,9.69
2024-03-01T01:31:09.551Z,9.72
2024-03-01T01:34:12.732Z,9.78
2024-03-01T01:37:16.230Z,9.86
2024-03-01T01:40:19.423Z,9.78
2024-03-01T01:43:22.546Z,9.78
2024-03-01T01:46:25.406Z,9.83
2024-03-01T01:49:30.133Z,9.83
2024-03-01T01:52:33.440Z,9.69
2024-03-01T01:55:37.709Z,9.68
2024-03-01T01:58:42.577Z,9.68
2024-03-01T02:01:46.081Z,9.72
2024-03-01T02:04:49.851Z,9.69
2024-03-01T02:07:53.367Z,9.63
2024-03-01T02:10:56.801Z,9.69
2024-03-01T02:13:59.967Z,9.69
2024-03-01T02:17:03.186Z,9.64
2024-03-01T02:20:08.055Z,9.66
2024-03-01T02:23:22.742Z,9.68
2024-03-01T02:26:25.920Z,9.73
2024-03-01T02:29:28.972Z,9.75
2024-03-01T02:32:31.954Z,9.81
2024-03-01T02:35:35.089Z,9.69
2024-03-01T02:38:38.196Z,9.73
2024-03-01T02:41:41.380Z,9.72
2024-03-01T02:44:44.238Z,9.63
2024-03-01T02:47:47.153Z,9.61
2024-03-01T02:50:50.180Z,9.59
2024-03-01T02:53:53.926Z,9.62
2024-03-01T02:56:56.742Z,9.61
2024-03-01T03:00:00.114Z,9.55
2024-03-01T03:03:02.905Z,9.57
2024-03-01T03:06:06.023Z,9.63
2024-03-01T03:09:10.880Z,9.66
2024-03-01T03:12:14.068Z,9.63
2024-03-01T03:15:17.868Z,9.68
2024-03-01T03:18:21.277Z,9.63
2024-03-01T03:21:24.777Z,9.59
2024-03-01T03:24:27.846Z,9.63
2024-03-01T03:27:30.902Z,9.65
2024-03-01T03:30:33.860Z,9.55
2024-03-01T03:33:37.193Z,9.53
2024-03-01T03:36:40.363Z,9.54
2024-03-01T03:39:43.518Z,9.52
2024-03-01T03:42:46.590Z,9.58
2024-03-01T03:45:49.707Z,9.54
2024-03-01T03:48:52.902Z,9.43
2024-03-01T03:51:56.034Z,9.48
2024-03-01T03:54:58.886Z,9.49
2024-03-01T03:58:01.703Z,9.50
2024-03-01T04:01:08.358Z,9.52
2024-03-01T04:04:11.352Z,9.54
2024-03-01T04:07:14.452Z,9.49
2024-03-01T04:10:17.304Z,9.48
2024-03-01T04:13:20.152Z,9.34
2024-03-01T04:16:23.231Z,9.40
2024-03-01T04:19:26.324Z,9.39
2024-03-01T04:22:29.464Z,9.35
2024-03-01T04:25:33.465Z,9.38
2024-03-01T04:28:40.555Z,9.42
2024-03-01T04:31:49.968Z,9.43
2024-03-01T04:34:52.702Z,9.32
2024-03-01T04:37:55.479Z,9.32
2024-03-01T04:40:58.283Z,9.31
2024-03-01T04:44:01.008Z,9.34
2024-03-01T04:47:03.913Z,9.30
2024-03-01T04:50:07.815Z,9.26
2024-03-01T04:53:10.938Z,9.23
2024-03-01T04:56:13.900Z,9.13
2024-03-01T04:59:16.994Z,9.15
2024-03-01T05:02:20.070Z,9.23
2024-03-01T05:05:24.272Z,9.31
2024-03-01T05:08:29.084Z,9.34
2024-03-01T05:11:37.192Z,9.33
2024-03-01T05:14:42.087Z,9.23
2024-03-01T05:17:46.489Z,9.26
2024-03-01T05:20:49.352Z,9.31
2024-03-01T05:23:52.754Z,9.28
2024-03-01T05:26:55.839Z,9.26
2024-03-01T05:29:58.927Z,9.27
2024-03-01T05:33:02.799Z,9.35
2024-03-01T05:36:07.242Z,9.34
2024-03-01T05:39:19.762Z,9.35
2024-03-01T05:42:24.593Z,9.45
2024-03-01T05:45:28.730Z,9.34
2024-03-01T05:48:31.824Z,9.36
2024-03-01T05:51:34.620Z,9.35
2024-03-01T05:54:38.396Z,9.38
2024-03-01T05:57:42.879Z,9.42
2024-03-01T06:00:47.022Z,9.38
2024-03-01T06:03:50.357Z,9.35
2024-03-01T06:06:53.502Z,9.41
2024-03-01T06:09:56.459Z,9.32
2024-03-01T06:13:00.860Z,9.27
2024-03-01T06:16:04.663Z,9.32
2024-03-01T06:19:07.528Z,9.27
2024-03-01T06:22:10.793Z,9.30
2024-03-01T06:25:13.760Z,9.28
2024-03-01T06:28:18.008Z,9.30
2024-03-01T06:31:21.335Z,9.37
2024-03-01T06:34:24.620Z,9.32
2024-03-01T06:37:27.721Z,9.43
2024-03-01T06:40:35.761Z,9.44
2024-03-01T06:43:38.827Z,9.51
2024-03-01T06:46:41.951Z,9.55
2024-03-01T06:49:45.113Z,9.58
2024-03-01T06:52:48.384Z,9.62
2024-03-01T06:55:51.644Z,9.70
2024-03-01T06:58:55.027Z,9.65
2024-03-01T07:01:58.305Z,9.66
2024-03-01T07:05:01.925Z,9.69
2024-03-01T07:08:05.295Z,9.75
2024-03-01T07:11:09.954Z,9.80
2024-03-01T07:14:13.941Z,9.87
2024-03-01T07:17:16.828Z,9.88
2024-03-01T07:20:19.888Z,9.86
2024-03-01T07:23:22.826Z,9.92
2024-03-01T07:26:25.987Z,9.94
2024-03-01T07:29:30.218Z,10.05
2024-03-01T07:32:37.172Z,10.02
2024-03-01T07:35:40.790Z,10.07
2024-03-01T07:38:46.460Z,10.17
2024-03-01T07:41:51.455Z,10.15
2024-03-01T07:44:57.037Z,10.01
2024-03-01T07:48:00.619Z,10.13
2024-03-01T07:51:04.844Z,10.13
2024-03-01T07:54:10.465Z,10.18
2024-03-01T07:57:13.407Z,10.18
2024-03-01T08:00:16.573Z,10.30
2024-03-01T08:03:19.773Z,10.24
2024-03-01T08:06:23.132Z,10.38
2024-03-01T08:09:33.922Z,10.31
2024-03-01T08:12:36.970Z,10.29
2024-03-01T08:15:42.055Z,10.39
2024-03-01T08:18:45.101Z,10.28
2024-03-01T08:21:49.133Z,10.36
2024-03-01T08:24:56.424Z,10.38
2024-03-01T08:27:59.518Z,10.53
2024-03-01T08:36:00.188Z,10.78
2024-03-01T08:44:56.509Z,11.01
2024-03-01T08:48:12.852Z,11.06
2024-03-01T08:51:19.017Z,11.08
2024-03-01T08:59:42.326Z,11.09
2024-03-01T09:02:48.104Z,11.14
2024-03-01T09:05:56.971Z,11.22
2024-03-01T09:09:01.618Z,11.17
2024-03-01T09:12:09.186Z,11.22
2024-03-01T09:15:22.962Z,11.30
2024-03-01T09:18:45.919Z,11.22
2024-03-01T09:21:49.799Z,11.43
2024-03-01T09:24:53.200Z,11.31
2024-03-01T09:27:57.966Z,11.33
2024-03-01T09:31:00.969Z,11.40
2024-03-01T09:34:08.384Z,11.47
2024-03-01T09:37:15.592Z,11.52
2024-03-01T09:40:39.441Z,11.44
2024-03-01T09:43:49.626Z,11.44
2024-03-01T09:47:25.814Z,11.54
2024-03-01T09:50:59.705Z,11.69
2024-03-01T09:54:18.260Z,11.93
2024-03-01T09:57:58.255Z,12.22
2024-03-01T10:01:13.329Z,12.53
2024-03-01T10:04:45.742Z,12.91
2024-03-01T10:07:54.485Z,13.04
2024-03-01T10:11:16.525Z,13.22
2024-03-01T10:14:25.324Z,13.26
2024-03-01T10:17:41.374Z,13.30
2024-03-01T10:21:21.465Z,13.32
2024-03-01T10:24:53.308Z,13.13
2024-03-01T10:28:19.869Z,13.09
2024-03-01T10:31:57.474Z,13.09
2024-03-01T10:35:17.342Z,13.07
2024-03-01T10:38:30.868Z,12.99
2024-03-01T10:42:05.253Z,13.04
2024-03-01T10:45:19.585Z,13.03
2024-03-01T10:48:28.135Z,12.97
2024-03-01T10:51:34.021Z,13.11
2024-03-01T10:54:37.250Z,12.93
2024-03-01T10:57:55.119Z,12.96
2024-03-01T11:01:35.973Z,12.95
2024-03-01T11:04:45.440Z,13.05
2024-03-01T11:07:57.729Z,13.08
2024-03-01T11:11:03.774Z,13.09
2024-03-01T11:14:11.344Z,13.10
2024-03-01T11:17:16.411Z,12.95
2024-03-01T11:20:43.111Z,12.92
2024-03-01T11:23:58.328Z,13.00
2024-03-01T11:27:05.601Z,13.00
2024-03-01T11:30:13.102Z,13.09
2024-03-01T11:33:20.737Z,13.17
2024-03-01T11:36:48.140Z,13.24
2024-03-01T11:39:55.591Z,13.30
2024-03-01T11:43:14.841Z,13.35
2024-03-01T11:47:08.075Z,13.26
2024-03-01T11:50:32.227Z,13.18
2024-03-01T11:53:57.801Z,13.09
2024-03-01T11:57:30.905Z,13.09
2024-03-01T12:00:49.089Z,13.13
2024-03-01T12:04:04.461Z,13.30
2024-03-01T12:07:20.547Z,13.41
2024-03-01T12:10:28.087Z,13.51
2024-03-01T12:13:35.778Z,13.61
2024-03-01T12:17:08.316Z,13.67
2024-03-01T12:20:15.782Z,13.57
2024-03-01T12:23:42.758Z,13.62
2024-03-01T12:27:20.900Z,13.69
2024-03-01T12:30:33.107Z,13.78
2024-03-01T12:34:13.472Z,13.85
2024-03-01T12:37:28.690Z,13.89
2024-03-01T12:40:38.906Z,13.83
2024-03-01T12:43:48.183Z,13.79
2024-03-01T12:47:12.182Z,13.80
2024-03-01T12:50:31.812Z,13.69
2024-03-01T12:53:53.212Z,13.63
2024-03-01T12:57:15.740Z,13.47
2024-03-01T13:00:26.868Z,13.45
2024-03-01T13:03:51.064Z,13.52
2024-03-01T13:06:54.921Z,13.51
2024-03-01T13:10:01.429Z,13.44
2024-03-01T13:13:16.109Z,13.33
2024-03-01T13:16:20.333Z,13.27
2024-03-01T13:19:32.163Z,13.14
2024-03-01T13:22:43.291Z,13.15
2024-03-01T13:26:04.270Z,13.28
2024-03-01T13:29:17.065Z,13.35
2024-03-01T13:32:36.130Z,13.43
2024-03-01T13:35:43.837Z,13.44
2024-03-01T13:39:11.930Z,13.61
2024-03-01T13:42:35.723Z,13.65
2024-03-01T13:45:44.037Z,13.64
2024-03-01T13:48:51.201Z,13.71
2024-03-01T13:51:56.045Z,13.88
2024-03-01T13:54:59.404Z,14.04
2024-03-01T13:58:02.452Z,14.13
2024-03-01T14:01:07.279Z,14.09
2024-03-01T14:04:10.390Z,14.14
2024-03-01T14:07:17.511Z,14.05
2024-03-01T14:10:23.088Z,13.89
2024-03-01T14:13:27.334Z,13.85
2024-03-01T14:16:33.977Z,13.94
2024-03-01T14:19:37.214Z,13.81
2024-03-01T14:22:43.999Z,13.84
2024-03-01T14:25:47.977Z,13.86
2024-03-01T14:28:51.098Z,13.85
2024-03-01T14:32:05.022Z,13.74
2024-03-01T14:35:25.628Z,13.72
2024-03-01T14:38:28.863Z,13.70
2024-03-01T14:41:41.595Z,13.69
2024-03-01T14:44:45.436Z,13.74
2024-03-01T14:47:58.938Z,13.84
2024-03-01T14:51:06.185Z,13.81
2024-03-01T14:54:26.074Z,13.89
2024-03-01T14:57:29.163Z,13.88
2024-03-01T15:00:33.708Z,13.91
2024-03-01T15:03:37.699Z,13.95
2024-03-01T15:06:40.761Z,13.96
2024-03-01T15:09:45.376Z,13.93
2024-03-01T15:12:59.535Z,13.86
2024-03-01T15:16:06.931Z,13.88
2024-03-01T15:19:19.622Z,13.90
2024-03-01T15:22:24.021Z,13.92
2024-03-01T15:25:26.924Z,13.90
2024-03-01T15:28:30.158Z,13.86
2024-03-01T15:31:32.936Z,13.83
2024-03-01T15:34:36.169Z,13.71
2024-03-01T15:37:40.306Z,13.61
2024-03-01T15:40:45.779Z,13.57
2024-03-01T15:43:50.781Z,13.52
2024-03-01T15:46:53.820Z,13.46
2024-03-01T15:49:56.917Z,13.43
2024-03-01T15:53:01.026Z,13.41
2024-03-01T15:56:08.814Z,13.36
2024-03-01T15:59:11.691Z,13.32
2024-03-01T16:02:24.255Z,13.32
2024-03-01T16:05:27.447Z,13.25
2024-03-01T16:08:30.332Z,13.22
2024-03-01T16:11:33.166Z,13.23
2024-03-01T16:14:38.166Z,13.21
2024-03-01T16:17:41.884Z,13.18
2024-03-01T16:20:45.051Z,13.09
2024-03-01T16:23:51.925Z,13.07
2024-03-01T16:26:55.448Z,13.08
2024-03-01T16:30:00.951Z,13.06
2024-03-01T16:33:04.573Z,13.04
2024-03-01T16:36:10.317Z,13.03
2024-03-01T16:39:35.448Z,12.99
2024-03-01T16:42:46.748Z,12.95
2024-03-01T16:45:49.864Z,12.95
2024-03-01T16:48:56.297Z,12.84
2024-03-01T16:51:59.602Z,12.80
2024-03-01T16:55:04.888Z,12.79
2024-03-01T16:58:11.558Z,12.76
2024-03-01T17:01:34.449Z,12.73
2024-03-01T17:04:38.011Z,12.72
2024-03-01T17:07:48.854Z,12.64
2024-03-01T17:10:52.169Z,12.51
2024-03-01T17:13:58.467Z,12.45
2024-03-01T17:17:01.547Z,12.41
2024-03-01T17:20:08.387Z,12.33
2024-03-01T17:23:11.685Z,12.25
2024-03-01T17:26:14.801Z,12.17
2024-03-01T17:29:18.002Z,12.10
2024-03-01T17:32:21.215Z,12.07
2024-03-01T17:35:24.353Z,12.01
2024-03-01T17:38:27.479Z,11.87
2024-03-01T17:41:30.629Z,11.79
2024-03-01T17:44:33.752Z,11.69
2024-03-01T17:47:36.758Z,11.60
2024-03-01T17:50:39.836Z,11.44
2024-03-01T17:53:42.868Z,11.44
2024-03-01T17:56:46.360Z,11.35
2024-03-01T17:59:49.405Z,11.33
2024-03-01T18:02:52.555Z,11.22
2024-03-01T18:06:00.888Z,11.14
2024-03-01T18:09:03.738Z,11.10
2024-03-01T18:12:06.936Z,10.99
2024-03-01T18:15:09.900Z,10.92
2024-03-01T18:18:14.310Z,10.92
2024-03-01T18:21:17.297Z,10.84
2024-03-01T18:24:20.467Z,10.84
2024-03-01T18:27:23.279Z,10.75
2024-03-01T18:30:26.055Z,10.65
2024-03-01T18:33:29.416Z,10.65
2024-03-01T18:36:32.499Z,10.54
2024-03-01T18:39:35.553Z,10.49
2024-03-01T18:42:38.701Z,10.37
2024-03-01T18:45:41.548Z,10.32
2024-03-01T18:48:47.763Z,10.23
2024-03-01T18:51:50.957Z,10.09
2024-03-01T18:54:54.307Z,10.04
2024-03-01T18:57:57.373Z,10.08
2024-03-01T19:01:10.293Z,9.95
2024-03-01T19:04:18.194Z,9.86
2024-03-01T19:07:21.677Z,9.82
2024-03-01T19:10:26.518Z,9.84
2024-03-01T19:13:31.329Z,9.83
2024-03-01T19:16:34.842Z,9.86
2024-03-01T19:19:38.472Z,9.84
2024-03-01T19:22:41.469Z,9.75
2024-03-01T19:25:47.187Z,9.74
2024-03-01T19:28:50.479Z,9.70
2024-03-01T19:31:55.410Z,9.59
2024-03-01T19:34:58.328Z,9.52
2024-03-01T19:38:01.248Z,9.51
2024-03-01T19:41:04.424Z,9.53
2024-03-01T19:44:07.615Z,9.49
2024-03-01T19:47:11.953Z,9.44
2024-03-01T19:50:14.966Z,9.26
2024-03-01T19:53:18.202Z,9.20
2024-03-01T19:56:21.268Z,9.21
2024-03-01T19:59:26.597Z,9.17
2024-03-01T20:02:29.634Z,9.01
2024-03-01T20:05:32.504Z,9.04
2024-03-01T20:08:35.237Z,9.07
2024-03-01T20:11:38.084Z,9.04
2024-03-01T20:14:40.992Z,9.04
2024-03-01T20:17:44.201Z,9.02
2024-03-01T20:20:47.261Z,9.02
2024-03-01T20:23:50.969Z,9.00
2024-03-01T20:26:53.741Z,9.02
2024-03-01T20:29:56.815Z,8.99
2024-03-01T20:33:03.251Z,8.96
2024-03-01T20:36:06.313Z,8.99
2024-03-01T20:39:10.358Z,8.97
2024-03-01T20:42:13.607Z,9.01
2024-03-01T20:45:16.509Z,9.10
2024-03-01T20:48:19.715Z,9.11
2024-03-01T20:51:24.841Z,9.02
2024-03-01T20:54:27.700Z,8.88
2024-03-01T20:57:33.724Z,8.86
2024-03-01T21:00:36.553Z,8.91
2024-03-01T21:03:39.574Z,8.88
2024-03-01T21:06:42.487Z,8.78
2024-03-01T21:09:45.265Z,8.77
2024-03-01T21:12:49.067Z,8.72
2024-03-01T21:15:52.587Z,8.66
2024-03-01T21:18:55.469Z,8.67
2024-03-01T21:25:06.980Z,8.56
2024-03-01T21:28:09.770Z,8.53
2024-03-01T21:31:13.659Z,8.53
2024-03-01T21:34:18.380Z,8.53
2024-03-01T21:37:21.425Z,8.51
2024-03-01T21:40:28.030Z,8.44
2024-03-01T21:43:30.838Z,8.46
2024-03-01T21:46:33.737Z,8.51
2024-03-01T21:49:37.296Z,8.54
2024-03-01T21:52:40.998Z,8.52
2024-03-01T21:55:44.105Z,8.48
2024-03-01T21:58:48.046Z,8.52
2024-03-01T22:01:50.894Z,8.46
2024-03-01T22:04:59.480Z,8.52
2024-03-01T22:08:10.500Z,8.42
2024-03-01T22:11:17.137Z,8.41
2024-03-01T22:14:21.033Z,8.38
2024-03-01T22:17:25.687Z,8.32
2024-03-01T22:20:28.531Z,8.35
2024-03-01T22:23:31.431Z,8.42
2024-03-01T22:26:35.807Z,8.46
2024-03-01T22:29:38.991Z,8.42
2024-03-01T22:32:43.019Z,8.34
2024-03-01T22:35:47.133Z,8.39
2024-03-01T22:38:50.180Z,8.35
2024-03-01T22:41:52.982Z,8.31
2024-03-01T22:44:56.185Z,8.31
2024-03-01T22:47:59.252Z,8.27
2024-03-01T22:51:04.111Z,8.36
2024-03-01T22:54:10.382Z,8.32
2024-03-01T22:57:15.483Z,8.23
2024-03-01T23:00:24.042Z,8.24
2024-03-01T23:03:42.098Z,8.17
2024-03-01T23:06:45.462Z,8.20
2024-03-01T23:09:48.819Z,8.17
2024-03-01T23:12:52.466Z,8.17
2024-03-01T23:15:55.640Z,8.15
2024-03-01T23:18:58.751Z,8.13
2024-03-01T23:22:02.173Z,8.11
2024-03-01T23:25:05.496Z,7.96
2024-03-01T23:28:10.724Z,8.09
2024-03-01T23:31:13.581Z,8.03
2024-03-01T23:34:17.297Z,7.97
2024-03-01T23:37:20.526Z,7.99
2024-03-01T23:40:25.299Z,7.95
2024-03-01T23:43:32.344Z,7.90
2024-03-01T23:46:35.131Z,7.90
2024-03-01T23:49:38.850Z,7.88
2024-03-01T23:52:42.203Z,7.82
2024-03-01T23:55:47.157Z,7.76
2024-03-01T23:58:50.548Z,7.72
